Terminal Aerodrome Forecast
Issued by NWS Cleveland, OH

Home | Current Version | Previous Version | Graphics & Text | Print | Product List | Glossary On
Versions: 1 2 3 4 5 6 7 8 9 10 11 12 13 14 15 16 17
042
FTUS41 KCLE 171741
TAFYNG
TAF
KYNG 171741Z 1718/1818 09006KT P6SM SCT030 OVC100
      TEMPO 1718/1720 BKN028
     FM172100 19007KT P6SM VCSH OVC030
     FM172300 19005KT 3SM -SN OVC015
      TEMPO 1800/1803 1SM -SN OVC005
     FM180400 23007KT P6SM OVC015
     FM181400 27005KT P6SM BKN025=

USA.gov is the U.S. government's official web portal to all federal, state and local government web resources and services.